createdAt,value
2022-09-06T00:00:18.934Z,54.57
2022-09-06T00:02:46.307Z,54.17
2022-09-06T00:05:14.308Z,54.01
2022-09-06T00:07:42.074Z,54.22
2022-09-06T00:10:10.727Z,54.15
2022-09-06T00:12:38.162Z,54.04
2022-09-06T00:15:07.031Z,53.45
2022-09-06T00:17:34.152Z,53.46
2022-09-06T00:20:01.643Z,53.26
2022-09-06T00:22:28.640Z,53.62
2022-09-06T00:24:55.405Z,53.17
2022-09-06T00:27:22.406Z,53.36
2022-09-06T00:29:49.278Z,53.20
2022-09-06T00:32:16.540Z,53.17
2022-09-06T00:34:43.283Z,53.24
2022-09-06T00:37:10.103Z,52.97
2022-09-06T00:39:37.009Z,53.10
2022-09-06T00:42:14.833Z,53.25
2022-09-06T00:44:41.656Z,53.35
2022-09-06T00:47:09.791Z,53.01
2022-09-06T00:49:46.275Z,53.05
2022-09-06T00:52:16.634Z,53.17
2022-09-06T00:54:43.992Z,53.25
2022-09-06T00:57:11.667Z,53.39
2022-09-06T00:59:41.646Z,53.46
2022-09-06T01:02:09.578Z,53.28
2022-09-06T01:04:41.651Z,53.13
2022-09-06T01:07:56.526Z,53.02
2022-09-06T01:11:03.627Z,53.29
2022-09-06T01:14:14.825Z,53.23
2022-09-06T01:17:22.411Z,53.41
2022-09-06T01:20:20.451Z,53.26
2022-09-06T01:23:34.380Z,53.75
2022-09-06T01:26:45.060Z,53.86
2022-09-06T01:29:39.412Z,53.07
2022-09-06T01:32:29.447Z,53.20
2022-09-06T01:35:17.135Z,53.85
2022-09-06T01:37:43.918Z,54.27
2022-09-06T01:40:10.737Z,54.21
2022-09-06T01:42:42.207Z,54.46
2022-09-06T01:45:19.772Z,54.90
2022-09-06T01:47:55.223Z,55.47
2022-09-06T01:50:52.391Z,55.52
2022-09-06T01:53:51.582Z,56.58
2022-09-06T01:56:50.568Z,56.09
2022-09-06T02:00:11.487Z,55.87
2022-09-06T02:03:16.516Z,55.72
2022-09-06T02:06:03.064Z,55.21
2022-09-06T02:08:39.189Z,54.97
2022-09-06T02:11:09.393Z,54.79
2022-09-06T02:13:46.154Z,55.12
2022-09-06T02:16:19.696Z,54.84
2022-09-06T02:19:07.675Z,54.73
2022-09-06T02:21:41.659Z,54.80
2022-09-06T02:24:18.491Z,55.30
2022-09-06T02:26:47.689Z,55.26
2022-09-06T02:29:16.722Z,55.09
2022-09-06T02:31:50.939Z,54.49
2022-09-06T02:34:20.874Z,55.24
2022-09-06T02:36:48.337Z,54.86
2022-09-06T02:39:15.301Z,54.69
2022-09-06T02:41:46.562Z,54.68
2022-09-06T02:44:13.979Z,55.33
2022-09-06T02:46:41.145Z,55.74
2022-09-06T02:49:07.864Z,55.94
2022-09-06T02:51:39.504Z,55.74
2022-09-06T02:54:07.555Z,55.73
2022-09-06T02:56:36.582Z,56.07
2022-09-06T02:59:04.971Z,56.17
2022-09-06T03:01:34.217Z,56.37
2022-09-06T03:04:01.204Z,56.53
2022-09-06T03:06:28.182Z,56.71
2022-09-06T03:08:54.889Z,56.56
2022-09-06T03:11:21.861Z,56.12
2022-09-06T03:13:48.628Z,56.51
2022-09-06T03:16:15.528Z,56.31
2022-09-06T03:18:42.787Z,56.82
2022-09-06T03:21:09.933Z,57.27
2022-09-06T03:23:39.578Z,57.11
2022-09-06T03:26:07.661Z,57.33
2022-09-06T03:28:34.595Z,57.30
2022-09-06T03:31:01.445Z,57.52
2022-09-06T03:33:28.255Z,57.58
2022-09-06T03:36:01.680Z,57.88
2022-09-06T03:38:30.654Z,57.75
2022-09-06T03:40:58.011Z,58.11
2022-09-06T03:43:27.013Z,58.03
2022-09-06T03:45:59.509Z,58.26
2022-09-06T03:48:29.637Z,58.32
2022-09-06T03:50:59.376Z,59.36
2022-09-06T03:53:28.907Z,59.10
2022-09-06T03:56:00.206Z,59.11
2022-09-06T03:58:31.587Z,59.42
2022-09-06T04:01:07.466Z,59.82
2022-09-06T04:03:36.048Z,59.80
2022-09-06T04:06:04.917Z,60.23
2022-09-06T04:08:33.666Z,60.12
2022-09-06T04:11:00.540Z,60.68
2022-09-06T04:13:29.632Z,60.80
2022-09-06T04:15:57.065Z,60.92
2022-09-06T04:18:24.021Z,60.97
2022-09-06T04:20:53.515Z,61.09
2022-09-06T04:23:20.726Z,61.16
2022-09-06T04:25:50.180Z,61.52
2022-09-06T04:28:18.695Z,62.27
2022-09-06T04:31:04.557Z,62.25
2022-09-06T04:33:34.884Z,61.93
2022-09-06T04:36:08.612Z,62.55
2022-09-06T04:38:40.291Z,62.21
2022-09-06T04:41:12.729Z,62.80
2022-09-06T04:43:39.839Z,62.90
2022-09-06T04:46:15.315Z,62.46
2022-09-06T04:48:42.020Z,62.71
2022-09-06T04:51:08.790Z,62.71
2022-09-06T04:53:35.619Z,63.52
2022-09-06T04:56:02.928Z,63.15
2022-09-06T04:58:29.845Z,63.13
2022-09-06T05:00:56.857Z,63.83
2022-09-06T05:03:23.929Z,63.19
2022-09-06T05:05:50.912Z,63.66
2022-09-06T05:08:17.851Z,63.26
2022-09-06T05:10:44.564Z,63.39
2022-09-06T05:13:11.238Z,63.87
2022-09-06T05:15:38.075Z,63.61
2022-09-06T05:18:06.771Z,63.32
2022-09-06T05:20:33.534Z,63.12
2022-09-06T05:23:00.283Z,63.29
2022-09-06T05:25:27.092Z,63.67
2022-09-06T05:27:53.739Z,63.35
2022-09-06T05:30:20.746Z,63.30
2022-09-06T05:32:47.473Z,63.18
2022-09-06T05:35:14.516Z,63.29
2022-09-06T05:37:41.244Z,63.45
2022-09-06T05:40:08.911Z,63.52
2022-09-06T05:42:35.865Z,63.41
2022-09-06T05:45:02.590Z,62.83
2022-09-06T05:47:31.158Z,63.55
2022-09-06T05:49:57.962Z,63.17
2022-09-06T05:52:24.672Z,63.33
2022-09-06T05:54:51.391Z,62.40
2022-09-06T05:57:18.107Z,62.73
2022-09-06T05:59:44.835Z,62.75
2022-09-06T06:02:11.739Z,62.77
2022-09-06T06:04:38.445Z,62.72
2022-09-06T06:07:05.227Z,62.32
2022-09-06T06:09:31.918Z,62.00
2022-09-06T06:11:58.556Z,61.36
2022-09-06T06:14:25.305Z,61.19
2022-09-06T06:16:52.056Z,61.31
2022-09-06T06:19:18.850Z,61.22
2022-09-06T06:21:45.602Z,60.99
2022-09-06T06:24:12.539Z,60.73
2022-09-06T06:26:39.644Z,60.52
2022-09-06T06:29:09.551Z,60.52
2022-09-06T06:31:38.914Z,60.67
2022-09-06T06:34:06.993Z,59.85
2022-09-06T06:36:36.874Z,59.97
2022-09-06T06:39:07.169Z,59.49
2022-09-06T06:41:33.948Z,59.78
2022-09-06T06:44:03.823Z,59.19
2022-09-06T06:46:37.413Z,58.71
2022-09-06T06:49:05.117Z,58.68
2022-09-06T06:51:37.078Z,58.49
2022-09-06T06:54:05.844Z,58.24
2022-09-06T06:56:40.722Z,57.94
2022-09-06T06:59:08.322Z,58.16
2022-09-06T07:01:37.142Z,56.87
2022-09-06T07:04:05.677Z,56.81
2022-09-06T07:12:24.927Z,56.56
2022-09-06T07:14:51.617Z,56.05
2022-09-06T07:17:18.267Z,56.75
2022-09-06T07:22:31.636Z,56.22
2022-09-06T07:24:58.303Z,56.58
2022-09-06T07:30:14.191Z,55.97
2022-09-06T07:32:41.012Z,56.42
2022-09-06T07:35:08.588Z,56.10
2022-09-06T07:37:35.467Z,56.20
2022-09-06T07:40:03.677Z,55.15
2022-09-06T07:42:36.486Z,55.29
2022-09-06T07:45:05.215Z,54.68
2022-09-06T07:53:08.583Z,56.09
2022-09-06T07:55:38.049Z,55.10
2022-09-06T07:58:04.842Z,55.29
2022-09-06T08:00:31.948Z,55.96
2022-09-06T08:02:58.994Z,56.19
2022-09-06T08:10:59.072Z,55.47
2022-09-06T08:13:25.866Z,55.93
2022-09-06T08:16:05.282Z,55.90
2022-09-06T08:18:32.692Z,55.64
2022-09-06T08:21:28.275Z,56.57
2022-09-06T08:24:07.777Z,55.91
2022-09-06T08:26:42.454Z,56.42
2022-09-06T08:29:10.976Z,55.62
2022-09-06T08:31:42.094Z,55.62
2022-09-06T08:34:12.545Z,56.04
2022-09-06T08:36:39.301Z,55.64
2022-09-06T08:39:09.935Z,55.63
2022-09-06T08:42:01.004Z,55.88
2022-09-06T08:45:06.450Z,56.13
2022-09-06T08:47:23.465Z,55.91
2022-09-06T08:50:11.325Z,55.30
2022-09-06T08:53:16.120Z,55.32
2022-09-06T08:56:16.895Z,54.23
2022-09-06T08:59:07.591Z,53.70
2022-09-06T09:01:55.659Z,54.02
2022-09-06T09:04:27.695Z,53.57
2022-09-06T09:07:06.940Z,54.07
2022-09-06T09:09:35.708Z,54.99
2022-09-06T09:12:03.334Z,54.86
2022-09-06T09:14:36.527Z,55.67
2022-09-06T09:17:29.277Z,55.55
2022-09-06T09:19:56.884Z,55.55
2022-09-06T09:22:25.832Z,55.79
2022-09-06T09:24:54.572Z,55.37
2022-09-06T09:27:28.739Z,55.71
2022-09-06T09:32:45.889Z,55.10
2022-09-06T09:35:40.782Z,54.77
2022-09-06T09:38:19.306Z,54.90
2022-09-06T09:40:56.129Z,55.64
2022-09-06T09:43:25.830Z,55.15
2022-09-06T09:46:22.699Z,55.50
2022-09-06T09:49:27.540Z,55.64
2022-09-06T09:52:13.013Z,55.66
2022-09-06T09:54:44.979Z,55.70
2022-09-06T09:57:18.463Z,56.38
2022-09-06T09:59:58.705Z,56.58
2022-09-06T10:02:35.880Z,55.21
2022-09-06T10:05:21.448Z,55.13
2022-09-06T10:07:53.441Z,56.03
2022-09-06T10:10:31.443Z,55.64
2022-09-06T10:13:21.509Z,54.92
2022-09-06T10:15:51.960Z,54.98
2022-09-06T10:18:37.058Z,55.81
2022-09-06T10:21:24.071Z,55.31
2022-09-06T10:24:30.637Z,54.96
2022-09-06T10:27:02.461Z,54.85
2022-09-06T10:29:56.056Z,54.87
2022-09-06T10:33:06.335Z,55.15
2022-09-06T10:35:40.039Z,54.86
2022-09-06T10:38:35.674Z,54.94
2022-09-06T10:41:42.549Z,54.77
2022-09-06T10:44:24.359Z,53.96
2022-09-06T10:47:11.808Z,54.10
2022-09-06T10:49:43.983Z,53.08
2022-09-06T10:52:25.609Z,52.43
2022-09-06T10:55:02.195Z,53.10
2022-09-06T11:00:49.364Z,52.03
2022-09-06T11:04:01.904Z,51.85
2022-09-06T11:06:43.044Z,52.14
2022-09-06T11:09:53.429Z,51.08
2022-09-06T11:12:39.745Z,51.34
2022-09-06T11:15:11.877Z,51.03
2022-09-06T11:18:10.455Z,51.25
2022-09-06T11:20:44.686Z,50.90
2022-09-06T11:23:32.792Z,51.04
2022-09-06T11:26:36.455Z,51.66
2022-09-06T11:29:10.550Z,51.84
2022-09-06T11:34:53.633Z,51.72
2022-09-06T11:37:36.893Z,52.30
2022-09-06T11:42:51.405Z,51.65
2022-09-06T11:45:39.738Z,51.96
2022-09-06T11:48:33.973Z,52.07
2022-09-06T11:51:06.779Z,51.95
2022-09-06T11:53:57.746Z,51.83
2022-09-06T11:56:40.757Z,51.87
2022-09-06T11:59:15.927Z,51.49
2022-09-06T12:02:02.368Z,51.66
2022-09-06T12:05:00.962Z,51.74
2022-09-06T12:07:31.246Z,51.37
2022-09-06T12:10:22.885Z,51.49
2022-09-06T12:12:52.638Z,51.57
2022-09-06T12:15:52.358Z,51.07
2022-09-06T12:18:47.239Z,51.77
2022-09-06T12:21:40.203Z,51.60
2022-09-06T12:24:28.764Z,51.35
2022-09-06T12:27:22.676Z,51.37
2022-09-06T12:30:12.180Z,51.46
2022-09-06T12:32:51.910Z,52.06
2022-09-06T12:38:17.195Z,51.21
2022-09-06T12:40:58.936Z,51.16
2022-09-06T12:43:27.134Z,50.64
2022-09-06T12:45:54.066Z,51.18
2022-09-06T12:48:33.589Z,51.12
2022-09-06T12:51:19.398Z,50.35
2022-09-06T12:54:04.259Z,50.45
2022-09-06T12:56:34.308Z,50.87
2022-09-06T12:59:21.336Z,50.83
2022-09-06T13:02:30.358Z,51.27
2022-09-06T13:05:07.096Z,51.54
2022-09-06T13:07:41.020Z,51.39
2022-09-06T13:10:09.521Z,51.04
2022-09-06T13:12:44.340Z,51.16
2022-09-06T13:15:19.659Z,51.56
2022-09-06T13:17:47.433Z,50.33
2022-09-06T13:20:30.475Z,50.02
2022-09-06T13:23:19.789Z,50.37
2022-09-06T13:25:50.305Z,49.31
2022-09-06T13:28:31.818Z,49.26
2022-09-06T13:31:08.382Z,49.48
2022-09-06T13:33:37.807Z,49.50
2022-09-06T13:36:28.003Z,48.96
2022-09-06T13:38:55.759Z,49.24
2022-09-06T13:41:25.223Z,48.47
2022-09-06T13:44:04.456Z,49.03
2022-09-06T13:46:33.361Z,48.91
2022-09-06T13:49:00.636Z,48.46
2022-09-06T13:51:28.053Z,48.80
2022-09-06T13:54:14.202Z,49.19
2022-09-06T13:56:44.650Z,49.37
2022-09-06T13:59:12.784Z,49.88
2022-09-06T14:01:43.014Z,49.79
2022-09-06T14:04:21.311Z,50.11
2022-09-06T14:06:49.352Z,49.80
2022-09-06T14:09:16.180Z,50.48
2022-09-06T14:11:47.480Z,50.04
2022-09-06T14:14:17.664Z,50.51
2022-09-06T14:16:46.047Z,50.32
2022-09-06T14:19:13.231Z,50.82
2022-09-06T14:21:40.378Z,50.29
2022-09-06T14:24:07.927Z,49.67
2022-09-06T14:26:37.022Z,50.46
2022-09-06T14:29:04.689Z,49.87
2022-09-06T14:31:34.712Z,50.25
2022-09-06T14:34:02.618Z,49.79
2022-09-06T14:36:32.234Z,50.17
2022-09-06T14:39:01.515Z,50.05
2022-09-06T14:41:28.971Z,50.10
2022-09-06T14:43:58.688Z,49.83
2022-09-06T14:46:28.179Z,50.13
2022-09-06T14:49:02.079Z,49.56
2022-09-06T14:51:30.626Z,49.10
2022-09-06T14:54:07.081Z,49.38
2022-09-06T14:56:34.607Z,49.80
2022-09-06T14:59:01.739Z,49.83
2022-09-06T15:01:38.143Z,50.17
2022-09-06T15:04:09.267Z,49.43
2022-09-06T15:06:40.303Z,49.74
2022-09-06T15:09:08.162Z,49.10
2022-09-06T15:11:39.387Z,49.55
2022-09-06T15:14:13.393Z,49.68
2022-09-06T15:16:40.153Z,49.84
2022-09-06T15:19:08.956Z,49.94
2022-09-06T15:21:36.334Z,49.92
2022-09-06T15:24:07.324Z,49.69
2022-09-06T15:26:36.692Z,50.13
2022-09-06T15:29:04.049Z,50.53
2022-09-06T15:31:34.097Z,50.23
2022-09-06T15:34:02.873Z,50.69
2022-09-06T15:36:30.292Z,50.71
2022-09-06T15:39:01.153Z,50.52
2022-09-06T15:41:32.361Z,50.39
2022-09-06T15:44:02.891Z,50.24
2022-09-06T15:46:50.988Z,50.49
2022-09-06T15:49:28.165Z,50.45
2022-09-06T15:51:59.516Z,50.94
2022-09-06T15:54:45.977Z,51.74
2022-09-06T15:57:16.167Z,51.36
2022-09-06T15:59:43.481Z,52.16
2022-09-06T16:02:11.466Z,51.62
2022-09-06T16:04:38.432Z,51.66
2022-09-06T16:07:06.224Z,51.90
2022-09-06T16:09:33.281Z,52.44
2022-09-06T16:12:00.043Z,52.31
2022-09-06T16:14:28.165Z,52.31
2022-09-06T16:16:56.298Z,52.22
2022-09-06T16:19:26.191Z,52.18
2022-09-06T16:21:53.609Z,52.55
2022-09-06T16:24:21.477Z,52.25
2022-09-06T16:26:48.701Z,52.39
2022-09-06T16:29:18.367Z,52.52
2022-09-06T16:31:46.932Z,52.67
2022-09-06T16:34:15.432Z,52.17
2022-09-06T16:36:42.412Z,52.82
2022-09-06T16:39:10.731Z,53.04
2022-09-06T16:41:44.459Z,53.32
2022-09-06T16:44:18.463Z,52.91
2022-09-06T16:46:48.006Z,53.11
2022-09-06T16:49:17.582Z,52.98
2022-09-06T16:51:46.445Z,52.85
2022-09-06T16:54:15.429Z,53.20
2022-09-06T16:56:43.321Z,53.12
2022-09-06T16:59:12.153Z,53.19
2022-09-06T17:01:45.078Z,53.06
2022-09-06T17:04:13.106Z,52.77
2022-09-06T17:06:44.663Z,52.97
2022-09-06T17:09:16.297Z,53.12
2022-09-06T17:11:43.228Z,53.13
2022-09-06T17:14:10.116Z,53.12
2022-09-06T17:16:55.762Z,53.32
2022-09-06T17:19:22.746Z,53.42
2022-09-06T17:21:49.459Z,53.36
2022-09-06T17:24:16.597Z,53.39
2022-09-06T17:26:43.347Z,53.05
2022-09-06T17:29:10.807Z,52.43
2022-09-06T17:31:38.241Z,52.44
2022-09-06T17:34:06.769Z,52.95
2022-09-06T17:36:34.626Z,52.98
2022-09-06T17:39:08.671Z,53.26
2022-09-06T17:41:43.052Z,52.43
2022-09-06T17:44:13.150Z,51.96
2022-09-06T17:46:57.078Z,51.45
2022-09-06T17:49:28.479Z,51.77
2022-09-06T17:51:55.218Z,51.74
2022-09-06T17:54:22.354Z,51.32
2022-09-06T17:56:49.059Z,50.87
2022-09-06T17:59:15.971Z,51.10
2022-09-06T18:01:45.628Z,50.37
2022-09-06T18:04:14.428Z,50.66
2022-09-06T18:06:43.379Z,51.52
2022-09-06T18:09:15.837Z,50.76
2022-09-06T18:11:45.950Z,50.69
2022-09-06T18:14:17.495Z,50.31
2022-09-06T18:16:47.240Z,50.44
2022-09-06T18:19:15.462Z,50.76
2022-09-06T18:21:42.641Z,50.60
2022-09-06T18:24:13.615Z,50.77
2022-09-06T18:26:41.765Z,50.31
2022-09-06T18:29:13.070Z,50.43
2022-09-06T18:31:41.305Z,50.20
2022-09-06T18:34:09.241Z,50.43
2022-09-06T18:36:38.344Z,51.06
2022-09-06T18:39:06.614Z,50.71
2022-09-06T18:41:53.593Z,50.75
2022-09-06T18:44:21.770Z,50.67
2022-09-06T18:46:49.229Z,50.82
2022-09-06T18:49:16.989Z,50.90
2022-09-06T18:51:44.660Z,50.91
2022-09-06T18:54:11.996Z,51.20
2022-09-06T18:56:38.779Z,51.05
2022-09-06T18:59:07.165Z,51.08
2022-09-06T19:01:35.240Z,50.80
2022-09-06T19:04:05.163Z,50.80
2022-09-06T19:06:34.843Z,50.84
2022-09-06T19:09:07.189Z,50.87
2022-09-06T19:11:34.889Z,50.61
2022-09-06T19:14:02.428Z,50.70
2022-09-06T19:16:31.578Z,50.85
2022-09-06T19:19:09.961Z,50.82
2022-09-06T19:21:41.759Z,51.02
2022-09-06T19:24:11.934Z,50.72
2022-09-06T19:26:43.315Z,50.80
2022-09-06T19:29:18.748Z,51.22
2022-09-06T19:31:47.444Z,50.88
2022-09-06T19:34:15.945Z,50.95
2022-09-06T19:36:44.909Z,50.95
2022-09-06T19:39:15.492Z,51.33
2022-09-06T19:41:47.658Z,51.42
2022-09-06T19:44:17.246Z,51.07
2022-09-06T19:46:46.756Z,51.07
2022-09-06T19:49:19.053Z,51.43
2022-09-06T19:51:48.849Z,51.63
2022-09-06T19:54:16.858Z,51.26
2022-09-06T19:56:44.915Z,51.27
2022-09-06T19:59:14.195Z,51.14
2022-09-06T20:01:44.405Z,51.17
2022-09-06T20:04:13.803Z,51.64
2022-09-06T20:06:41.211Z,51.75
2022-09-06T20:09:10.250Z,51.46
2022-09-06T20:11:39.391Z,51.70
2022-09-06T20:14:06.836Z,52.50
2022-09-06T20:16:35.282Z,52.45
2022-09-06T20:19:05.031Z,52.15
2022-09-06T20:21:32.103Z,51.86
2022-09-06T20:23:59.692Z,51.81
2022-09-06T20:26:30.372Z,52.58
2022-09-06T20:29:00.453Z,52.52
2022-09-06T20:31:30.821Z,52.32
2022-09-06T20:34:04.235Z,52.85
2022-09-06T20:36:31.498Z,52.94
2022-09-06T20:38:58.329Z,52.81
2022-09-06T20:41:27.096Z,52.41
2022-09-06T20:43:57.122Z,52.56
2022-09-06T20:46:30.581Z,52.83
2022-09-06T20:49:01.903Z,53.18
2022-09-06T20:51:28.641Z,54.05
2022-09-06T20:54:01.295Z,54.18
2022-09-06T20:56:33.803Z,54.45
2022-09-06T20:59:03.914Z,54.09
2022-09-06T21:01:35.845Z,54.28
2022-09-06T21:04:06.606Z,54.35
2022-09-06T21:06:37.125Z,55.69
2022-09-06T21:09:08.841Z,55.44
2022-09-06T21:11:36.572Z,55.55
2022-09-06T21:14:04.755Z,55.37
2022-09-06T21:16:32.354Z,55.92
2022-09-06T21:19:06.367Z,56.42
2022-09-06T21:21:35.038Z,56.99
2022-09-06T21:24:04.381Z,56.59
2022-09-06T21:26:31.783Z,57.11
2022-09-06T21:28:59.126Z,56.89
2022-09-06T21:31:31.071Z,57.19
2022-09-06T21:34:03.247Z,57.70
2022-09-06T21:36:35.182Z,57.19
2022-09-06T21:39:12.686Z,57.02
2022-09-06T21:41:42.392Z,57.67
2022-09-06T21:44:10.464Z,57.99
2022-09-06T21:46:39.847Z,58.17
2022-09-06T21:49:10.931Z,58.12
2022-09-06T21:51:38.760Z,58.70
2022-09-06T21:54:06.767Z,58.70
2022-09-06T21:56:37.703Z,58.59
2022-09-06T21:59:06.521Z,58.27
2022-09-06T22:01:36.262Z,58.06
2022-09-06T22:04:04.433Z,58.72
2022-09-06T22:06:33.820Z,58.05
2022-09-06T22:09:07.616Z,57.52
2022-09-06T22:11:41.143Z,57.49
2022-09-06T22:14:11.349Z,57.02
2022-09-06T22:16:40.548Z,56.95
2022-09-06T22:19:09.723Z,56.86
2022-09-06T22:21:38.529Z,56.55
2022-09-06T22:24:09.988Z,56.42
2022-09-06T22:26:39.912Z,57.01
2022-09-06T22:29:10.709Z,56.59
2022-09-06T22:31:38.048Z,57.07
2022-09-06T22:34:05.945Z,56.42
2022-09-06T22:36:33.688Z,56.55
2022-09-06T22:39:00.484Z,56.58
2022-09-06T22:41:30.881Z,56.17
2022-09-06T22:44:00.856Z,56.17
2022-09-06T22:46:29.009Z,56.36
2022-09-06T22:48:55.976Z,55.80
2022-09-06T22:51:23.106Z,55.96
2022-09-06T22:53:50.553Z,55.65
2022-09-06T22:56:17.387Z,55.89
2022-09-06T22:58:44.224Z,56.42
2022-09-06T23:01:17.067Z,56.19
2022-09-06T23:03:44.580Z,56.20
2022-09-06T23:06:11.537Z,56.35
2022-09-06T23:08:40.704Z,56.60
2022-09-06T23:11:14.657Z,56.35
2022-09-06T23:13:46.127Z,56.29
2022-09-06T23:16:17.549Z,56.38
2022-09-06T23:18:46.072Z,56.64
2022-09-06T23:21:17.234Z,56.68
2022-09-06T23:23:44.806Z,56.77
2022-09-06T23:26:19.185Z,56.92
2022-09-06T23:28:46.367Z,57.23
2022-09-06T23:31:15.580Z,57.50
2022-09-06T23:33:42.977Z,57.21
2022-09-06T23:36:14.620Z,57.88
2022-09-06T23:38:42.697Z,58.48
2022-09-06T23:41:11.165Z,58.85
2022-09-06T23:43:40.370Z,59.09
2022-09-06T23:46:08.789Z,58.42
2022-09-06T23:48:36.233Z,57.91
2022-09-06T23:51:04.354Z,58.54
2022-09-06T23:53:31.965Z,59.04
2022-09-06T23:55:59.096Z,58.37
2022-09-06T23:58:26.430Z,58.34
